Time;durP1;ratioP1;P1;durP2;ratioP2;P2;SDS_P1;SDS_P2;PMS_P1;PMS_P2;Temp;Humidity;BMP_temperature;BMP_pressure;BME280_temperature;BME280_humidity;BME280_pressure;Samples;Min_cycle;Max_cycle;Signal;HPM_P1;HPM_P2
2023/12/15 00:01:11;;;;;;;56.40;40.50;;;4.40;99.90;;;;;;4962322;28;20042;-77
2023/12/15 00:03:36;;;;;;;37.60;33.50;;;4.30;99.90;;;;;;4967114;28;20031;-78
2023/12/15 00:06:02;;;;;;;33.33;29.80;;;4.20;99.90;;;;;;4947590;28;20045;-77
2023/12/15 00:08:28;;;;;;;38.90;33.17;;;4.20;99.90;;;;;;4966266;28;20031;-77
2023/12/15 00:10:54;;;;;;;33.38;29.67;;;4.20;99.90;;;;;;4952025;29;20462;-77
2023/12/15 00:13:19;;;;;;;30.45;27.35;;;4.30;99.90;;;;;;4967214;28;20031;-77
2023/12/15 00:15:45;;;;;;;28.05;25.25;;;4.30;99.90;;;;;;4966134;28;20081;-77
2023/12/15 00:18:11;;;;;;;27.92;24.98;;;4.40;99.90;;;;;;4972766;28;20027;-77
2023/12/15 00:20:36;;;;;;;25.70;23.25;;;4.40;99.90;;;;;;4962833;28;20549;-77
2023/12/15 00:23:02;;;;;;;25.88;23.25;;;4.50;99.90;;;;;;4968654;28;20038;-77
2023/12/15 00:25:28;;;;;;;27.83;25.23;;;4.50;99.90;;;;;;4961955;28;20031;-77
2023/12/15 00:27:53;;;;;;;24.33;22.10;;;4.50;99.90;;;;;;4949209;28;20490;-77
2023/12/15 00:30:19;;;;;;;21.42;19.38;;;4.50;99.90;;;;;;4967746;28;20409;-77
2023/12/15 00:32:45;;;;;;;20.88;18.33;;;4.50;99.90;;;;;;4961448;28;20055;-77
2023/12/15 00:35:10;;;;;;;19.55;17.70;;;4.50;99.90;;;;;;4966426;28;20027;-77
2023/12/15 00:37:36;;;;;;;18.48;16.80;;;4.50;99.90;;;;;;4965853;28;20024;-77
2023/12/15 00:40:02;;;;;;;17.70;16.13;;;4.50;99.90;;;;;;4962385;28;20046;-77
2023/12/15 00:42:28;;;;;;;14.77;13.57;;;4.50;99.90;;;;;;4969322;28;20023;-77
2023/12/15 00:44:56;;;;;;;14.73;13.55;;;4.60;99.90;;;;;;4963349;28;20232;-77
2023/12/15 00:47:22;;;;;;;15.82;14.63;;;4.60;99.90;;;;;;4952151;28;20390;-77
2023/12/15 00:49:47;;;;;;;15.13;13.98;;;4.60;99.90;;;;;;4967280;28;20030;-77
2023/12/15 00:52:13;;;;;;;13.57;12.50;;;4.60;99.90;;;;;;4965051;28;20570;-77
2023/12/15 00:54:39;;;;;;;13.93;12.73;;;4.50;99.90;;;;;;4969079;28;20106;-77
2023/12/15 00:57:04;;;;;;;12.52;11.52;;;4.40;99.90;;;;;;4968595;28;20501;-78
2023/12/15 00:59:30;;;;;;;13.10;12.00;;;4.50;99.90;;;;;;4965289;28;20050;-77
2023/12/15 01:01:55;;;;;;;14.95;13.60;;;4.50;99.90;;;;;;4966370;28;20062;-78
2023/12/15 01:04:21;;;;;;;17.00;15.35;;;4.50;99.90;;;;;;4964743;28;20031;-77
2023/12/15 01:06:47;;;;;;;18.27;16.75;;;4.50;99.90;;;;;;4969057;28;20117;-77
2023/12/15 01:09:12;;;;;;;18.13;16.42;;;4.50;99.90;;;;;;4965412;28;20087;-78
2023/12/15 01:11:38;;;;;;;16.20;14.60;;;4.40;99.90;;;;;;4960178;28;20077;-77
2023/12/15 01:14:04;;;;;;;17.90;16.40;;;4.30;99.90;;;;;;4964989;28;20026;-77
2023/12/15 01:16:29;;;;;;;17.27;15.88;;;4.30;99.90;;;;;;4966470;28;20469;-77
2023/12/15 01:18:55;;;;;;;16.98;15.48;;;4.20;99.90;;;;;;4965247;28;20263;-78
2023/12/15 01:21:21;;;;;;;17.17;15.57;;;4.20;99.90;;;;;;4964838;28;20019;-77
2023/12/15 01:23:46;;;;;;;15.57;14.38;;;4.10;99.90;;;;;;4955405;28;20035;-77
2023/12/15 01:26:12;;;;;;;13.07;12.05;;;4.10;99.90;;;;;;4964174;28;20106;-77
2023/12/15 01:28:38;;;;;;;10.55;9.75;;;4.00;99.90;;;;;;4955468;28;20227;-77
2023/12/15 01:31:04;;;;;;;9.32;8.63;;;3.90;99.90;;;;;;4967934;28;20027;-77
2023/12/15 01:33:30;;;;;;;9.15;8.45;;;4.00;99.90;;;;;;4964807;28;20048;-77
2023/12/15 01:35:56;;;;;;;8.88;8.27;;;4.10;99.90;;;;;;4964638;28;20110;-77
2023/12/15 01:38:22;;;;;;;9.20;8.70;;;4.10;99.90;;;;;;4967794;28;20275;-77
2023/12/15 01:40:48;;;;;;;7.70;7.00;;;4.20;99.90;;;;;;4948894;28;20079;-77
2023/12/15 01:43:13;;;;;;;6.43;6.03;;;4.40;99.90;;;;;;4947458;28;20035;-78
2023/12/15 01:45:39;;;;;;;6.38;6.00;;;4.40;99.90;;;;;;4964835;28;20031;-77
2023/12/15 01:48:06;;;;;;;6.35;6.05;;;4.50;99.90;;;;;;4967391;28;20066;-77
2023/12/15 01:50:32;;;;;;;5.57;5.28;;;4.50;99.90;;;;;;4964551;28;21112;-78
2023/12/15 01:52:58;;;;;;;5.10;4.90;;;4.50;99.90;;;;;;4968785;28;20034;-77
2023/12/15 01:55:24;;;;;;;5.80;5.60;;;4.50;99.90;;;;;;4963168;28;20050;-77
2023/12/15 01:57:49;;;;;;;5.40;5.20;;;4.50;99.90;;;;;;4965148;28;20106;-77
2023/12/15 02:00:15;;;;;;;5.43;5.20;;;4.60;99.90;;;;;;4961362;28;20035;-77
2023/12/15 02:02:41;;;;;;;5.47;5.28;;;4.70;99.90;;;;;;4964278;28;20031;-78
2023/12/15 02:05:07;;;;;;;5.10;4.70;;;4.90;99.90;;;;;;4964492;28;20054;-78
2023/12/15 02:07:32;;;;;;;6.18;5.30;;;4.80;99.90;;;;;;4964533;28;20071;-78
2023/12/15 02:09:59;;;;;;;4.72;4.53;;;4.90;99.90;;;;;;4966288;28;20049;-78
2023/12/15 02:12:24;;;;;;;4.80;4.57;;;4.80;99.90;;;;;;4967642;28;20059;-78
2023/12/15 02:14:50;;;;;;;4.82;4.43;;;4.90;99.90;;;;;;4947959;28;20478;-78
2023/12/15 02:17:16;;;;;;;4.35;4.15;;;4.80;99.90;;;;;;4964281;28;20082;-78
2023/12/15 02:19:42;;;;;;;6.93;6.53;;;4.70;99.90;;;;;;4968577;28;20027;-78
2023/12/15 02:22:08;;;;;;;7.63;6.93;;;4.60;99.90;;;;;;4951018;28;20039;-78
2023/12/15 02:24:34;;;;;;;8.68;8.07;;;4.50;99.90;;;;;;4961361;28;20046;-78
2023/12/15 02:26:59;;;;;;;8.00;7.45;;;4.50;99.90;;;;;;4955820;28;20385;-78
2023/12/15 02:29:26;;;;;;;7.90;7.40;;;4.40;99.90;;;;;;4956501;28;20031;-78
2023/12/15 02:31:53;;;;;;;9.43;8.65;;;4.30;99.90;;;;;;4951332;28;20030;-78
2023/12/15 02:34:19;;;;;;;7.03;6.63;;;4.30;99.90;;;;;;4966880;28;20512;-78
2023/12/15 02:36:44;;;;;;;7.28;6.88;;;4.30;99.90;;;;;;4966991;28;20034;-78
2023/12/15 02:39:10;;;;;;;6.88;6.40;;;4.20;99.90;;;;;;4969880;28;20031;-78
2023/12/15 02:41:36;;;;;;;6.28;5.97;;;4.30;99.90;;;;;;4970067;28;20026;-78
2023/12/15 02:44:01;;;;;;;7.47;7.07;;;4.20;99.90;;;;;;4961057;28;20031;-78
2023/12/15 02:46:27;;;;;;;12.20;11.10;;;4.00;99.90;;;;;;4970402;28;20061;-78
2023/12/15 02:48:52;;;;;;;14.15;13.05;;;4.20;99.90;;;;;;4950178;28;20512;-78
2023/12/15 02:51:29;;;;;;;13.77;12.77;;;4.10;99.90;;;;;;4952212;28;20027;-78
2023/12/15 02:53:58;;;;;;;14.45;13.13;;;4.10;99.90;;;;;;4957134;28;20037;-78
2023/12/15 02:56:24;;;;;;;18.63;17.00;;;3.90;99.90;;;;;;4971223;28;20110;-78
2023/12/15 02:58:50;;;;;;;18.65;17.05;;;3.70;99.90;;;;;;4973765;28;20250;-78
2023/12/15 03:01:16;;;;;;;14.57;13.48;;;3.60;99.90;;;;;;4949712;28;20114;-78
2023/12/15 03:03:42;;;;;;;13.23;12.13;;;3.70;99.90;;;;;;4971033;28;20066;-78
2023/12/15 03:06:07;;;;;;;14.35;13.15;;;3.70;99.90;;;;;;4965941;28;20031;-78
2023/12/15 03:08:33;;;;;;;14.30;13.20;;;3.70;99.90;;;;;;4957837;28;20064;-78
2023/12/15 03:10:59;;;;;;;10.73;9.93;;;3.80;99.90;;;;;;4963180;28;20034;-78
2023/12/15 03:13:28;;;;;;;10.38;9.68;;;3.90;99.90;;;;;;4971209;28;20034;-78
2023/12/15 03:16:01;;;;;;;9.57;8.98;;;3.90;99.90;;;;;;4967162;28;20027;-78
2023/12/15 03:18:27;;;;;;;8.20;7.72;;;3.90;99.90;;;;;;4946664;28;20066;-78
2023/12/15 03:20:53;;;;;;;7.25;6.85;;;4.00;99.90;;;;;;4956014;28;20031;-78
2023/12/15 03:23:18;;;;;;;6.72;6.43;;;3.90;99.90;;;;;;4969131;28;20030;-78
2023/12/15 03:25:44;;;;;;;7.40;7.03;;;4.00;99.90;;;;;;4966307;28;20118;-78
2023/12/15 03:28:09;;;;;;;5.97;5.68;;;4.10;99.90;;;;;;4955877;28;20497;-78
2023/12/15 03:30:35;;;;;;;7.32;6.93;;;4.10;99.90;;;;;;4949629;28;20033;-79
2023/12/15 03:33:01;;;;;;;8.55;8.05;;;4.10;99.90;;;;;;4969653;28;20051;-78
2023/12/15 03:35:27;;;;;;;10.13;9.43;;;4.10;99.90;;;;;;4966463;28;20023;-79
2023/12/15 03:37:52;;;;;;;17.55;16.02;;;4.10;99.90;;;;;;4974711;28;20027;-78
2023/12/15 03:40:18;;;;;;;15.00;13.43;;;4.00;99.90;;;;;;4964407;28;20027;-78
2023/12/15 03:42:46;;;;;;;11.05;10.20;;;3.90;99.90;;;;;;4965857;28;20027;-78
2023/12/15 03:45:12;;;;;;;9.27;8.60;;;3.80;99.90;;;;;;4965935;28;20153;-79
2023/12/15 03:47:38;;;;;;;8.02;6.80;;;3.70;99.90;;;;;;4950945;28;20029;-78
2023/12/15 03:50:04;;;;;;;6.85;6.55;;;3.80;99.90;;;;;;4967090;28;20451;-78
2023/12/15 03:52:30;;;;;;;6.43;6.13;;;3.80;99.90;;;;;;4965202;28;20020;-78
2023/12/15 03:54:56;;;;;;;6.95;6.63;;;3.90;99.90;;;;;;4965840;28;20023;-78
2023/12/15 03:57:22;;;;;;;6.10;5.80;;;3.90;99.90;;;;;;4962662;28;20090;-78
2023/12/15 03:59:48;;;;;;;5.72;5.40;;;3.90;99.90;;;;;;4965953;28;20041;-79
2023/12/15 04:02:15;;;;;;;5.55;5.25;;;4.00;99.90;;;;;;4964229;28;20035;-78
2023/12/15 04:04:44;;;;;;;5.35;5.13;;;4.00;99.90;;;;;;4966615;28;20082;-78
2023/12/15 04:07:09;;;;;;;5.93;5.63;;;4.10;99.90;;;;;;4966030;28;20110;-78
2023/12/15 04:09:35;;;;;;;5.38;5.15;;;4.20;99.90;;;;;;4968874;28;20576;-78
2023/12/15 04:12:01;;;;;;;4.30;4.10;;;4.10;99.90;;;;;;4970320;28;20031;-79
2023/12/15 04:14:27;;;;;;;4.40;4.20;;;4.20;99.90;;;;;;4966144;28;20504;-78
2023/12/15 04:16:52;;;;;;;5.75;5.35;;;4.20;99.90;;;;;;4948699;28;20421;-78
2023/12/15 04:19:18;;;;;;;5.43;5.00;;;4.30;99.90;;;;;;4968664;28;20026;-79
2023/12/15 04:21:44;;;;;;;5.03;4.82;;;4.30;99.90;;;;;;4966404;28;20030;-79
2023/12/15 04:24:09;;;;;;;5.85;5.55;;;4.30;99.90;;;;;;4946116;28;20512;-78
2023/12/15 04:26:35;;;;;;;5.55;5.25;;;4.40;99.90;;;;;;4967321;28;20022;-79
2023/12/15 04:29:01;;;;;;;6.22;5.93;;;4.50;99.90;;;;;;4969821;28;20158;-78
2023/12/15 04:31:27;;;;;;;5.07;4.88;;;4.40;99.90;;;;;;4967378;28;20026;-78
2023/12/15 04:33:52;;;;;;;5.75;5.55;;;4.40;99.90;;;;;;4965776;28;20051;-79
2023/12/15 04:36:21;;;;;;;5.10;4.72;;;4.50;99.90;;;;;;4965693;28;20021;-78
2023/12/15 04:38:47;;;;;;;4.82;4.63;;;4.40;99.90;;;;;;4952875;28;20044;-78
2023/12/15 04:41:20;;;;;;;4.15;3.85;;;4.30;99.90;;;;;;4962133;28;20031;-79
2023/12/15 04:43:46;;;;;;;4.65;4.35;;;4.30;99.90;;;;;;4967743;28;20030;-78
2023/12/15 04:46:12;;;;;;;5.35;5.05;;;4.40;99.90;;;;;;4963301;28;20642;-78
2023/12/15 04:48:38;;;;;;;4.28;4.18;;;4.30;99.90;;;;;;4955670;28;20031;-78
2023/12/15 04:51:04;;;;;;;4.97;4.75;;;4.20;99.90;;;;;;4963635;28;20027;-78
2023/12/15 04:53:30;;;;;;;5.45;5.25;;;4.10;99.90;;;;;;4975600;28;20028;-78
2023/12/15 04:55:55;;;;;;;5.65;5.45;;;4.10;99.90;;;;;;4966528;28;20031;-78
2023/12/15 04:58:21;;;;;;;4.75;4.43;;;4.10;99.90;;;;;;4969419;28;20535;-78
2023/12/15 05:00:47;;;;;;;5.30;5.05;;;4.10;99.90;;;;;;4968499;28;20525;-78
2023/12/15 05:03:12;;;;;;;4.22;4.13;;;4.20;99.90;;;;;;4967659;28;20081;-78
2023/12/15 05:05:38;;;;;;;5.20;4.93;;;4.30;99.90;;;;;;4962696;28;20107;-78
2023/12/15 05:08:04;;;;;;;5.97;5.57;;;4.40;99.90;;;;;;4972852;28;20027;-78
2023/12/15 05:10:29;;;;;;;5.15;4.95;;;4.60;99.90;;;;;;4946618;29;20032;-78
2023/12/15 05:12:55;;;;;;;5.10;4.90;;;4.60;99.90;;;;;;4968359;28;20034;-79
2023/12/15 05:15:21;;;;;;;4.68;4.57;;;4.50;99.90;;;;;;4945215;28;20382;-78
2023/12/15 05:17:46;;;;;;;5.60;5.40;;;4.40;99.90;;;;;;4967602;28;20031;-79
2023/12/15 05:20:12;;;;;;;6.63;6.20;;;4.30;99.90;;;;;;4967802;28;20027;-78
2023/12/15 05:22:38;;;;;;;7.00;6.60;;;4.20;99.90;;;;;;4948357;28;20109;-78
2023/12/15 05:25:04;;;;;;;6.32;5.93;;;4.20;99.90;;;;;;4958166;28;20031;-78
2023/12/15 05:27:29;;;;;;;6.93;6.63;;;4.10;99.90;;;;;;4966200;28;20038;-78
2023/12/15 05:29:55;;;;;;;5.55;5.25;;;4.00;99.90;;;;;;4963700;28;20035;-78
2023/12/15 05:32:21;;;;;;;5.53;5.30;;;4.00;99.90;;;;;;4970082;28;20037;-78
2023/12/15 05:34:47;;;;;;;4.65;4.55;;;3.90;99.90;;;;;;4959698;28;20054;-78
2023/12/15 05:37:13;;;;;;;4.90;4.70;;;3.90;99.90;;;;;;4964515;28;20086;-78
2023/12/15 05:39:42;;;;;;;4.35;4.25;;;3.90;99.90;;;;;;4966657;28;20037;-78
2023/12/15 05:42:08;;;;;;;5.25;5.15;;;4.00;99.90;;;;;;4964380;28;20051;-78
2023/12/15 05:44:33;;;;;;;4.97;4.63;;;3.90;99.90;;;;;;4960527;28;20073;-78
2023/12/15 05:46:59;;;;;;;5.20;5.00;;;3.90;99.90;;;;;;4952326;29;20046;-78
2023/12/15 05:49:25;;;;;;;4.10;3.80;;;3.80;99.90;;;;;;4967234;28;20034;-78
2023/12/15 05:51:50;;;;;;;6.30;6.00;;;3.90;99.90;;;;;;4969048;28;20461;-78
2023/12/15 05:54:16;;;;;;;5.43;5.22;;;3.90;99.90;;;;;;4962615;28;20035;-78
2023/12/15 05:56:42;;;;;;;4.85;4.65;;;4.00;99.90;;;;;;4956029;28;20057;-78
2023/12/15 05:59:08;;;;;;;5.45;5.25;;;4.00;99.90;;;;;;4947311;28;20023;-78
2023/12/15 06:01:34;;;;;;;5.38;5.18;;;4.00;99.90;;;;;;4963337;28;20034;-78
2023/12/15 06:03:59;;;;;;;4.60;4.40;;;3.90;99.90;;;;;;4964285;28;20117;-79
2023/12/15 06:06:25;;;;;;;5.60;5.30;;;3.70;99.90;;;;;;4972485;28;20030;-78
2023/12/15 06:08:51;;;;;;;5.05;4.85;;;3.60;99.90;;;;;;4956895;28;20496;-78
2023/12/15 06:11:17;;;;;;;4.55;4.45;;;3.70;99.90;;;;;;4968294;28;20041;-79
2023/12/15 06:13:43;;;;;;;5.35;5.15;;;3.60;99.90;;;;;;4966649;28;20046;-78
2023/12/15 06:16:18;;;;;;;4.70;4.60;;;3.70;99.90;;;;;;4970279;28;20109;-78
2023/12/15 06:18:43;;;;;;;4.82;4.63;;;3.70;99.90;;;;;;4966616;28;20033;-78
2023/12/15 06:21:09;;;;;;;6.18;5.93;;;3.80;99.90;;;;;;4968861;28;20027;-78
2023/12/15 06:23:37;;;;;;;5.15;4.90;;;3.90;99.90;;;;;;4968208;28;20067;-78
2023/12/15 06:26:03;;;;;;;6.80;6.18;;;3.80;99.90;;;;;;4968314;28;20259;-78
2023/12/15 06:28:28;;;;;;;5.57;5.18;;;3.80;99.90;;;;;;4970132;28;20047;-78
2023/12/15 06:30:54;;;;;;;6.45;5.95;;;3.60;99.90;;;;;;4969703;28;20035;-79
2023/12/15 06:33:20;;;;;;;7.40;7.00;;;3.80;99.90;;;;;;4971559;28;20050;-78
2023/12/15 06:35:45;;;;;;;6.75;6.35;;;3.80;99.90;;;;;;4968729;28;20023;-78
2023/12/15 06:38:11;;;;;;;8.95;8.35;;;3.80;99.90;;;;;;4973830;28;20118;-78
2023/12/15 06:40:37;;;;;;;8.55;8.05;;;3.90;99.90;;;;;;4966995;28;20027;-78
2023/12/15 06:43:02;;;;;;;7.30;6.45;;;4.00;99.90;;;;;;4973905;28;20504;-78
2023/12/15 06:45:28;;;;;;;7.20;6.70;;;4.10;99.90;;;;;;4971825;28;20481;-78
2023/12/15 06:47:54;;;;;;;6.00;5.72;;;4.10;99.90;;;;;;4955828;28;20030;-78
2023/12/15 06:50:19;;;;;;;6.47;6.03;;;3.90;99.90;;;;;;4968930;28;20027;-78
2023/12/15 06:52:45;;;;;;;7.78;7.18;;;4.00;99.90;;;;;;4969304;28;20130;-78
2023/12/15 06:55:11;;;;;;;7.07;6.65;;;3.90;99.90;;;;;;4946394;28;20033;-78
2023/12/15 06:57:36;;;;;;;7.65;7.20;;;3.90;99.90;;;;;;4967998;28;20023;-78
2023/12/15 07:00:02;;;;;;;7.10;6.60;;;4.10;99.90;;;;;;4953589;28;20027;-78
2023/12/15 07:02:28;;;;;;;8.90;8.27;;;4.10;99.90;;;;;;4968059;28;20494;-78
2023/12/15 07:04:54;;;;;;;7.22;6.85;;;4.00;99.90;;;;;;4954127;28;20073;-78
2023/12/15 07:07:21;;;;;;;8.07;7.47;;;4.00;99.90;;;;;;4946324;28;20027;-78
2023/12/15 07:09:46;;;;;;;12.48;11.20;;;3.90;99.90;;;;;;4965379;28;20387;-79
2023/12/15 07:12:12;;;;;;;11.52;10.43;;;3.90;99.90;;;;;;4968057;28;20026;-78
2023/12/15 07:14:37;;;;;;;11.45;10.35;;;3.90;99.90;;;;;;4950419;28;20508;-78
2023/12/15 07:17:04;;;;;;;9.48;7.97;;;4.00;99.90;;;;;;4954718;29;20031;-79
2023/12/15 07:19:30;;;;;;;8.48;7.88;;;4.00;99.90;;;;;;4946768;29;20027;-79
2023/12/15 07:21:56;;;;;;;7.43;6.93;;;4.00;99.90;;;;;;4957709;28;20031;-79
2023/12/15 07:24:21;;;;;;;5.93;5.63;;;3.90;99.90;;;;;;4967240;28;20023;-78
2023/12/15 07:26:47;;;;;;;6.03;5.72;;;3.80;99.90;;;;;;4970971;28;20230;-78
2023/12/15 07:29:13;;;;;;;6.78;6.38;;;3.80;99.90;;;;;;4949544;28;20039;-78
2023/12/15 07:31:39;;;;;;;6.60;6.20;;;3.90;99.90;;;;;;4954137;28;20054;-78
2023/12/15 07:34:05;;;;;;;6.75;6.07;;;3.90;99.90;;;;;;4966845;28;20043;-78
2023/12/15 07:36:31;;;;;;;6.75;6.22;;;4.00;99.90;;;;;;4966353;28;20066;-78
2023/12/15 07:38:57;;;;;;;7.50;6.90;;;4.00;99.90;;;;;;4957642;28;20054;-78
2023/12/15 07:41:23;;;;;;;7.95;7.45;;;4.10;99.90;;;;;;4967176;28;20027;-79
2023/12/15 07:43:50;;;;;;;13.70;12.48;;;4.20;99.90;;;;;;4962840;28;20055;-78
2023/12/15 07:46:17;;;;;;;9.75;9.05;;;4.20;99.90;;;;;;4945585;28;20026;-78
2023/12/15 07:48:42;;;;;;;10.38;9.57;;;4.20;99.90;;;;;;4947088;28;20527;-78
2023/12/15 07:51:21;;;;;;;10.10;9.18;;;4.30;99.90;;;;;;4957229;28;20113;-78
2023/12/15 07:53:47;;;;;;;16.88;13.05;;;4.30;99.90;;;;;;4949470;28;20401;-78
2023/12/15 07:56:24;;;;;;;13.82;11.93;;;4.40;99.90;;;;;;4966475;28;20046;-78
2023/12/15 07:58:50;;;;;;;18.02;14.40;;;4.40;99.90;;;;;;4963121;28;20111;-78
2023/12/15 08:01:20;;;;;;;17.17;15.05;;;4.50;99.90;;;;;;4966180;28;20033;-78
2023/12/15 08:03:46;;;;;;;17.17;12.90;;;4.50;99.90;;;;;;4963526;28;20066;-79
2023/12/15 08:06:16;;;;;;;14.95;13.52;;;4.50;99.90;;;;;;4961696;28;20045;-78
2023/12/15 08:08:43;;;;;;;19.25;15.98;;;4.50;99.90;;;;;;4963869;28;20049;-78
2023/12/15 08:11:10;;;;;;;14.23;12.77;;;4.50;99.90;;;;;;4965928;28;20055;-78
2023/12/15 08:13:36;;;;;;;17.45;15.77;;;4.50;99.90;;;;;;4968683;28;20434;-78
2023/12/15 08:16:03;;;;;;;15.73;14.23;;;4.60;99.90;;;;;;4963620;28;20167;-78
2023/12/15 08:18:29;;;;;;;17.90;14.70;;;4.60;99.90;;;;;;4962251;28;21229;-78
2023/12/15 08:20:55;;;;;;;19.50;15.20;;;4.70;99.90;;;;;;4958341;28;20027;-78
2023/12/15 08:23:20;;;;;;;13.82;11.73;;;4.70;99.90;;;;;;4970057;28;20041;-78
2023/12/15 08:25:46;;;;;;;10.80;9.70;;;4.80;99.90;;;;;;4948296;28;20393;-78
2023/12/15 08:28:12;;;;;;;17.83;11.00;;;5.00;99.90;;;;;;4970760;28;20031;-78
2023/12/15 08:30:39;;;;;;;17.63;9.77;;;5.00;99.90;;;;;;4966412;28;20027;-78
2023/12/15 08:33:05;;;;;;;9.77;8.80;;;5.10;99.90;;;;;;4973256;28;20055;-78
2023/12/15 08:35:31;;;;;;;9.75;6.82;;;5.10;99.90;;;;;;4947436;28;20393;-78
2023/12/15 08:37:59;;;;;;;8.23;7.63;;;5.20;99.90;;;;;;4966920;28;20536;-78
2023/12/15 08:40:25;;;;;;;10.32;9.60;;;5.30;99.90;;;;;;4966331;28;20075;-78
2023/12/15 08:42:51;;;;;;;10.63;9.90;;;5.30;99.90;;;;;;4967577;28;20027;-78
2023/12/15 08:45:17;;;;;;;9.55;8.75;;;5.30;99.90;;;;;;4965110;28;20162;-78
2023/12/15 08:47:43;;;;;;;9.57;8.77;;;5.40;99.90;;;;;;4976572;28;20098;-78
2023/12/15 08:50:09;;;;;;;9.82;8.70;;;5.50;99.90;;;;;;4963292;28;20102;-78
2023/12/15 08:52:34;;;;;;;9.15;8.45;;;5.50;99.90;;;;;;4971538;28;20675;-78
2023/12/15 08:55:00;;;;;;;11.30;10.13;;;5.50;99.90;;;;;;4968389;28;20034;-78
2023/12/15 08:57:26;;;;;;;9.85;9.07;;;5.50;99.90;;;;;;4951724;28;20114;-78
2023/12/15 08:59:52;;;;;;;10.52;9.63;;;5.50;99.90;;;;;;4965257;28;20038;-78
2023/12/15 09:02:17;;;;;;;11.27;10.18;;;5.60;99.90;;;;;;4965866;28;20508;-78
2023/12/15 09:04:43;;;;;;;10.38;9.48;;;5.80;99.90;;;;;;4965045;28;20030;-78
2023/12/15 09:07:08;;;;;;;12.10;11.05;;;5.80;99.90;;;;;;4958148;28;20069;-78
2023/12/15 09:09:35;;;;;;;11.13;10.23;;;5.80;99.90;;;;;;4967265;28;20023;-78
2023/12/15 09:12:01;;;;;;;12.43;11.32;;;5.90;99.90;;;;;;4952438;28;20302;-78
2023/12/15 09:14:29;;;;;;;14.20;12.90;;;5.90;99.90;;;;;;4962694;28;20526;-78
2023/12/15 09:16:55;;;;;;;12.68;11.57;;;5.90;99.90;;;;;;4968789;28;20019;-78
2023/12/15 09:19:21;;;;;;;14.43;12.73;;;5.90;99.90;;;;;;4965098;28;20023;-78
2023/12/15 09:21:47;;;;;;;13.82;12.40;;;6.00;99.90;;;;;;4966040;28;20033;-78
2023/12/15 09:24:17;;;;;;;13.15;11.90;;;6.10;99.90;;;;;;4961275;28;20113;-78
2023/12/15 09:26:44;;;;;;;15.40;13.90;;;6.10;99.90;;;;;;4950912;28;20037;-78
2023/12/15 09:29:10;;;;;;;15.05;13.55;;;6.20;99.90;;;;;;4965318;28;20525;-78
2023/12/15 09:31:36;;;;;;;14.45;12.90;;;6.20;99.90;;;;;;4967823;28;20069;-78
2023/12/15 09:34:02;;;;;;;19.15;14.00;;;6.30;99.90;;;;;;4965006;28;20039;-77
2023/12/15 09:36:28;;;;;;;16.77;15.25;;;6.30;99.90;;;;;;4948182;28;20543;-78
2023/12/15 09:38:54;;;;;;;33.38;24.45;;;6.40;99.90;;;;;;4963530;28;20058;-77
2023/12/15 09:41:20;;;;;;;18.70;16.25;;;6.50;99.90;;;;;;4957855;28;20023;-78
2023/12/15 09:43:46;;;;;;;22.17;18.75;;;6.50;99.90;;;;;;4964804;28;20034;-78
2023/12/15 09:46:12;;;;;;;16.17;14.57;;;6.50;99.90;;;;;;4964205;28;20027;-77
2023/12/15 09:48:38;;;;;;;17.48;15.93;;;6.60;99.90;;;;;;4953024;28;20031;-78
2023/12/15 09:51:12;;;;;;;12.82;11.70;;;6.70;99.90;;;;;;4963380;28;20023;-78
2023/12/15 09:53:38;;;;;;;12.38;11.38;;;6.80;99.90;;;;;;4965479;28;20027;-77
2023/12/15 09:56:05;;;;;;;12.15;11.13;;;7.00;99.90;;;;;;4963107;28;20026;-78
2023/12/15 09:58:30;;;;;;;13.65;12.35;;;7.00;99.90;;;;;;4965491;28;20050;-77
2023/12/15 10:00:56;;;;;;;12.77;11.52;;;7.20;99.90;;;;;;4964630;28;20027;-77
2023/12/15 10:03:22;;;;;;;14.55;12.73;;;7.40;99.90;;;;;;4953488;28;20078;-78
2023/12/15 10:05:48;;;;;;;17.48;14.68;;;7.50;99.90;;;;;;4963594;28;20026;-78
2023/12/15 10:08:14;;;;;;;15.15;13.60;;;7.50;99.90;;;;;;4956847;28;20433;-77
2023/12/15 10:10:39;;;;;;;15.80;13.80;;;7.50;99.90;;;;;;4965133;28;20023;-78
2023/12/15 10:13:05;;;;;;;15.13;13.50;;;7.50;99.90;;;;;;4967447;28;20059;-77
2023/12/15 10:15:31;;;;;;;13.93;12.80;;;7.50;99.90;;;;;;4953691;28;20027;-77
2023/12/15 10:17:58;;;;;;;14.80;13.32;;;7.50;99.90;;;;;;4963769;28;20027;-77
2023/12/15 10:20:24;;;;;;;21.55;16.15;;;7.60;99.90;;;;;;4964595;28;20032;-77
2023/12/15 10:23:04;;;;;;;18.77;16.92;;;7.70;99.90;;;;;;4952432;28;20605;-77
2023/12/15 10:25:32;;;;;;;22.65;18.20;;;7.80;99.90;;;;;;4962618;28;20114;-78
2023/12/15 10:27:58;;;;;;;22.38;20.02;;;7.90;99.90;;;;;;4965132;28;20030;-77
2023/12/15 10:30:24;;;;;;;22.35;20.15;;;7.90;99.90;;;;;;4961889;28;20378;-77
2023/12/15 10:32:53;;;;;;;21.55;19.23;;;7.80;99.90;;;;;;4965513;28;20027;-77
2023/12/15 10:35:22;;;;;;;22.20;20.08;;;7.80;99.90;;;;;;4961272;28;20019;-77
2023/12/15 10:37:48;;;;;;;21.85;19.63;;;7.90;99.90;;;;;;4965120;28;20105;-77
2023/12/15 10:40:14;;;;;;;24.13;20.20;;;7.90;99.90;;;;;;4943795;29;20031;-77
2023/12/15 10:42:41;;;;;;;23.80;21.05;;;7.90;99.90;;;;;;4967884;28;20477;-77
2023/12/15 10:45:08;;;;;;;24.08;20.13;;;7.90;99.90;;;;;;4963727;28;20054;-77
2023/12/15 10:47:34;;;;;;;23.15;20.65;;;7.90;99.90;;;;;;4965816;28;20030;-77
2023/12/15 10:50:01;;;;;;;27.00;20.77;;;7.90;99.90;;;;;;4965446;28;20486;-77
2023/12/15 10:52:27;;;;;;;24.23;21.83;;;8.00;99.90;;;;;;4953920;28;20449;-77
2023/12/15 10:54:55;;;;;;;24.92;20.00;;;8.00;99.90;;;;;;4949214;28;20099;-77
2023/12/15 10:57:21;;;;;;;23.75;21.45;;;8.00;99.90;;;;;;4950581;28;20501;-77
2023/12/15 10:59:48;;;;;;;24.25;21.52;;;8.10;99.90;;;;;;4967490;28;20026;-77
2023/12/15 11:02:17;;;;;;;29.80;21.90;;;8.20;99.90;;;;;;4956983;28;20027;-78
2023/12/15 11:04:43;;;;;;;27.25;22.77;;;8.30;99.90;;;;;;4964330;28;20027;-77
2023/12/15 11:07:11;;;;;;;24.88;22.35;;;8.30;99.90;;;;;;4971736;28;20114;-78
2023/12/15 11:09:37;;;;;;;30.60;22.10;;;8.30;99.90;;;;;;4965139;28;20027;-77
2023/12/15 11:12:22;;;;;;;31.45;21.27;;;8.40;99.90;;;;;;4966124;28;20082;-77
2023/12/15 11:14:57;;;;;;;24.48;21.38;;;8.40;99.90;;;;;;4964040;28;20111;-77
2023/12/15 11:17:23;;;;;;;28.75;22.20;;;8.40;99.90;;;;;;4953304;28;20066;-77
2023/12/15 11:19:51;;;;;;;20.17;18.08;;;8.40;99.90;;;;;;4963989;28;20481;-78
2023/12/15 11:22:17;;;;;;;20.95;17.48;;;8.40;99.90;;;;;;4970908;28;20397;-77
2023/12/15 11:24:43;;;;;;;21.42;18.23;;;8.50;99.90;;;;;;4970163;28;20038;-77
2023/12/15 11:27:13;;;;;;;19.77;17.20;;;8.50;99.90;;;;;;4972612;28;20031;-77
2023/12/15 11:29:38;;;;;;;17.98;15.75;;;8.50;99.90;;;;;;4956414;28;20031;-77
2023/12/15 11:32:27;;;;;;;20.95;18.48;;;8.60;99.90;;;;;;4953911;28;20045;-77
2023/12/15 11:34:53;;;;;;;14.98;13.68;;;8.60;99.90;;;;;;4965203;28;20062;-77
2023/12/15 11:37:20;;;;;;;18.92;14.38;;;8.60;99.90;;;;;;4971325;28;20028;-77
2023/12/15 11:39:49;;;;;;;16.98;15.32;;;8.70;99.90;;;;;;4968631;28;20033;-77
2023/12/15 11:42:15;;;;;;;20.00;15.80;;;8.80;99.90;;;;;;4963884;28;20031;-78
2023/12/15 11:44:44;;;;;;;17.73;15.45;;;8.80;99.90;;;;;;4949782;28;20026;-78
2023/12/15 11:47:11;;;;;;;20.25;15.68;;;8.90;99.90;;;;;;4967737;28;20031;-77
2023/12/15 11:49:42;;;;;;;15.18;13.65;;;8.90;99.90;;;;;;4963526;28;20051;-78
2023/12/15 11:52:10;;;;;;;17.88;13.52;;;8.90;99.90;;;;;;4963644;28;20681;-78
2023/12/15 11:54:36;;;;;;;17.33;14.05;;;9.00;99.90;;;;;;4966672;28;20097;-77
2023/12/15 11:57:05;;;;;;;16.05;14.55;;;9.00;99.90;;;;;;4956074;28;20054;-78
2023/12/15 11:59:50;;;;;;;14.50;13.20;;;9.00;99.90;;;;;;4956706;28;20031;-78
2023/12/15 12:02:16;;;;;;;18.77;15.65;;;9.10;99.90;;;;;;4947835;28;20110;-78
2023/12/15 12:04:47;;;;;;;21.05;15.48;;;9.20;99.90;;;;;;4949359;28;20070;-77
2023/12/15 12:07:13;;;;;;;22.17;15.93;;;9.20;99.90;;;;;;4969591;28;20393;-78
2023/12/15 12:09:39;;;;;;;13.75;12.35;;;9.30;99.90;;;;;;4966347;28;20031;-78
2023/12/15 12:12:06;;;;;;;12.48;10.18;;;9.30;99.90;;;;;;4949203;28;20066;-78
2023/12/15 12:14:33;;;;;;;14.05;9.25;;;9.40;77.40;;;;;;4963558;28;20038;-78
2023/12/15 12:16:59;;;;;;;9.63;8.50;;;9.40;74.70;;;;;;4965513;28;20024;-78
2023/12/15 12:19:24;;;;;;;7.80;7.20;;;9.50;41.00;;;;;;4949247;28;20030;-78
2023/12/15 12:21:52;;;;;;;10.55;8.00;;;9.50;23.90;;;;;;4968833;28;20046;-78
2023/12/15 12:24:19;;;;;;;17.17;9.40;;;9.60;25.00;;;;;;4962936;28;20114;-78
2023/12/15 12:26:46;;;;;;;12.20;10.50;;;9.50;71.80;;;;;;4966774;28;20031;-78
2023/12/15 12:29:14;;;;;;;21.52;13.15;;;9.50;93.90;;;;;;4963017;28;20421;-78
2023/12/15 12:31:39;;;;;;;25.90;15.07;;;9.50;89.70;;;;;;4972428;28;20019;-78
2023/12/15 12:34:05;;;;;;;24.95;15.82;;;9.60;74.40;;;;;;4962198;28;20158;-78
2023/12/15 12:36:31;;;;;;;20.38;13.55;;;9.50;88.80;;;;;;4965876;28;20046;-78
2023/12/15 12:38:57;;;;;;;14.13;11.90;;;9.50;99.90;;;;;;4965921;28;20504;-78
2023/12/15 12:41:23;;;;;;;10.57;9.48;;;9.40;96.70;;;;;;4965999;28;20110;-78